sensor_id;sensor_type;location;lat;lon;timestamp;P1;durP1;ratioP1;P2;durP2;ratioP2
485;SDS011;229;48.734;9.340;2023-04-24T00:02:20;1.95;;;1.70;;
485;SDS011;229;48.734;9.340;2023-04-24T00:04:48;1.85;;;1.63;;
485;SDS011;229;48.734;9.340;2023-04-24T00:07:15;3.45;;;1.90;;
485;SDS011;229;48.734;9.340;2023-04-24T00:09:42;1.95;;;1.83;;
485;SDS011;229;48.734;9.340;2023-04-24T00:12:09;2.47;;;2.05;;
485;SDS011;229;48.734;9.340;2023-04-24T00:14:38;3.65;;;2.30;;
485;SDS011;229;48.734;9.340;2023-04-24T00:17:05;2.90;;;2.10;;
485;SDS011;229;48.734;9.340;2023-04-24T00:19:32;2.25;;;1.92;;
485;SDS011;229;48.734;9.340;2023-04-24T00:21:59;4.13;;;2.00;;
485;SDS011;229;48.734;9.340;2023-04-24T00:24:27;2.75;;;2.10;;
485;SDS011;229;48.734;9.340;2023-04-24T00:26:54;3.78;;;1.85;;
485;SDS011;229;48.734;9.340;2023-04-24T00:29:22;2.00;;;1.90;;
485;SDS011;229;48.734;9.340;2023-04-24T00:31:50;2.40;;;1.90;;
485;SDS011;229;48.734;9.340;2023-04-24T00:34:17;2.45;;;1.88;;
485;SDS011;229;48.734;9.340;2023-04-24T00:36:46;4.00;;;1.98;;
485;SDS011;229;48.734;9.340;2023-04-24T00:39:15;2.00;;;1.90;;
485;SDS011;229;48.734;9.340;2023-04-24T00:41:42;4.50;;;2.05;;
485;SDS011;229;48.734;9.340;2023-04-24T00:44:10;2.97;;;2.10;;
485;SDS011;229;48.734;9.340;2023-04-24T00:46:37;2.05;;;1.77;;
485;SDS011;229;48.734;9.340;2023-04-24T00:49:06;2.90;;;1.75;;
485;SDS011;229;48.734;9.340;2023-04-24T00:51:33;2.03;;;1.80;;
485;SDS011;229;48.734;9.340;2023-04-24T00:54:01;4.40;;;1.92;;
485;SDS011;229;48.734;9.340;2023-04-24T00:56:29;3.58;;;2.00;;
485;SDS011;229;48.734;9.340;2023-04-24T00:58:56;2.22;;;1.75;;
485;SDS011;229;48.734;9.340;2023-04-24T01:01:23;4.95;;;2.20;;
485;SDS011;229;48.734;9.340;2023-04-24T01:03:51;2.20;;;2.00;;
485;SDS011;229;48.734;9.340;2023-04-24T01:06:19;7.60;;;1.80;;
485;SDS011;229;48.734;9.340;2023-04-24T01:08:47;2.85;;;2.38;;
485;SDS011;229;48.734;9.340;2023-04-24T01:11:14;4.43;;;1.90;;
485;SDS011;229;48.734;9.340;2023-04-24T01:13:41;2.22;;;2.05;;
485;SDS011;229;48.734;9.340;2023-04-24T01:16:09;2.30;;;2.00;;
485;SDS011;229;48.734;9.340;2023-04-24T01:18:36;2.53;;;1.60;;
485;SDS011;229;48.734;9.340;2023-04-24T01:21:04;3.63;;;2.00;;
485;SDS011;229;48.734;9.340;2023-04-24T01:23:32;3.45;;;1.95;;
485;SDS011;229;48.734;9.340;2023-04-24T01:25:59;3.10;;;2.40;;
485;SDS011;229;48.734;9.340;2023-04-24T01:28:27;3.97;;;2.00;;
485;SDS011;229;48.734;9.340;2023-04-24T01:30:54;5.85;;;2.08;;
485;SDS011;229;48.734;9.340;2023-04-24T01:33:21;2.72;;;1.80;;
485;SDS011;229;48.734;9.340;2023-04-24T01:35:49;2.80;;;1.70;;
485;SDS011;229;48.734;9.340;2023-04-24T01:38:16;2.00;;;1.60;;
485;SDS011;229;48.734;9.340;2023-04-24T01:40:44;2.00;;;1.90;;
485;SDS011;229;48.734;9.340;2023-04-24T01:43:12;5.88;;;2.10;;
485;SDS011;229;48.734;9.340;2023-04-24T01:45:39;2.13;;;1.90;;
485;SDS011;229;48.734;9.340;2023-04-24T01:48:06;4.60;;;1.70;;
485;SDS011;229;48.734;9.340;2023-04-24T01:50:34;3.40;;;1.85;;
485;SDS011;229;48.734;9.340;2023-04-24T01:53:01;3.85;;;1.75;;
485;SDS011;229;48.734;9.340;2023-04-24T01:55:28;1.60;;;1.50;;
485;SDS011;229;48.734;9.340;2023-04-24T01:57:57;2.83;;;1.75;;
485;SDS011;229;48.734;9.340;2023-04-24T02:00:25;3.25;;;1.90;;
485;SDS011;229;48.734;9.340;2023-04-24T02:02:52;1.75;;;1.60;;
485;SDS011;229;48.734;9.340;2023-04-24T02:05:20;1.63;;;1.60;;
485;SDS011;229;48.734;9.340;2023-04-24T02:07:47;3.63;;;2.20;;
485;SDS011;229;48.734;9.340;2023-04-24T02:10:14;2.42;;;1.80;;
485;SDS011;229;48.734;9.340;2023-04-24T02:12:41;4.78;;;2.00;;
485;SDS011;229;48.734;9.340;2023-04-24T02:15:10;2.03;;;1.77;;
485;SDS011;229;48.734;9.340;2023-04-24T02:17:37;1.60;;;1.58;;
485;SDS011;229;48.734;9.340;2023-04-24T02:20:05;3.03;;;1.92;;
485;SDS011;229;48.734;9.340;2023-04-24T02:22:33;3.13;;;2.00;;
485;SDS011;229;48.734;9.340;2023-04-24T02:25:00;5.20;;;1.92;;
485;SDS011;229;48.734;9.340;2023-04-24T02:27:27;5.45;;;1.92;;
485;SDS011;229;48.734;9.340;2023-04-24T02:29:54;2.28;;;1.70;;
485;SDS011;229;48.734;9.340;2023-04-24T02:32:23;3.50;;;2.00;;
485;SDS011;229;48.734;9.340;2023-04-24T02:34:50;5.72;;;1.80;;
485;SDS011;229;48.734;9.340;2023-04-24T02:37:17;3.13;;;1.80;;
485;SDS011;229;48.734;9.340;2023-04-24T02:39:44;1.85;;;1.83;;
485;SDS011;229;48.734;9.340;2023-04-24T02:42:11;2.67;;;1.60;;
485;SDS011;229;48.734;9.340;2023-04-24T02:44:38;3.25;;;1.83;;
485;SDS011;229;48.734;9.340;2023-04-24T02:47:06;2.38;;;1.70;;
485;SDS011;229;48.734;9.340;2023-04-24T02:49:35;3.20;;;2.13;;
485;SDS011;229;48.734;9.340;2023-04-24T02:52:02;3.72;;;2.00;;
485;SDS011;229;48.734;9.340;2023-04-24T02:54:29;2.45;;;1.60;;
485;SDS011;229;48.734;9.340;2023-04-24T02:56:56;1.70;;;1.60;;
485;SDS011;229;48.734;9.340;2023-04-24T02:59:23;2.88;;;1.85;;
485;SDS011;229;48.734;9.340;2023-04-24T03:01:52;3.97;;;2.83;;
485;SDS011;229;48.734;9.340;2023-04-24T03:04:19;3.55;;;1.70;;
485;SDS011;229;48.734;9.340;2023-04-24T03:06:48;2.30;;;1.80;;
485;SDS011;229;48.734;9.340;2023-04-24T03:09:17;3.03;;;1.70;;
485;SDS011;229;48.734;9.340;2023-04-24T03:11:45;4.10;;;1.80;;
485;SDS011;229;48.734;9.340;2023-04-24T03:14:12;2.20;;;1.60;;
485;SDS011;229;48.734;9.340;2023-04-24T03:16:39;3.40;;;1.75;;
485;SDS011;229;48.734;9.340;2023-04-24T03:19:06;2.28;;;1.48;;
485;SDS011;229;48.734;9.340;2023-04-24T03:21:33;4.00;;;1.75;;
485;SDS011;229;48.734;9.340;2023-04-24T03:24:06;1.70;;;1.60;;
485;SDS011;229;48.734;9.340;2023-04-24T03:26:34;3.47;;;1.90;;
485;SDS011;229;48.734;9.340;2023-04-24T03:29:01;2.90;;;1.90;;
485;SDS011;229;48.734;9.340;2023-04-24T03:31:28;2.95;;;1.73;;
485;SDS011;229;48.734;9.340;2023-04-24T03:33:55;2.92;;;2.08;;
485;SDS011;229;48.734;9.340;2023-04-24T03:36:22;2.53;;;1.60;;
485;SDS011;229;48.734;9.340;2023-04-24T03:38:51;2.97;;;1.80;;
485;SDS011;229;48.734;9.340;2023-04-24T03:41:19;3.42;;;1.50;;
485;SDS011;229;48.734;9.340;2023-04-24T03:43:47;2.25;;;1.52;;
485;SDS011;229;48.734;9.340;2023-04-24T03:46:14;3.47;;;1.67;;
485;SDS011;229;48.734;9.340;2023-04-24T03:48:42;1.75;;;1.70;;
485;SDS011;229;48.734;9.340;2023-04-24T03:51:09;2.92;;;1.70;;
485;SDS011;229;48.734;9.340;2023-04-24T03:53:36;3.00;;;1.85;;
485;SDS011;229;48.734;9.340;2023-04-24T03:56:03;7.93;;;1.80;;
485;SDS011;229;48.734;9.340;2023-04-24T03:58:32;3.03;;;1.70;;
485;SDS011;229;48.734;9.340;2023-04-24T04:00:59;2.45;;;2.00;;
485;SDS011;229;48.734;9.340;2023-04-24T04:03:26;3.22;;;2.50;;
485;SDS011;229;48.734;9.340;2023-04-24T04:05:53;3.15;;;2.45;;
485;SDS011;229;48.734;9.340;2023-04-24T04:08:20;2.45;;;2.28;;
485;SDS011;229;48.734;9.340;2023-04-24T04:10:47;2.72;;;2.53;;
485;SDS011;229;48.734;9.340;2023-04-24T04:13:15;3.05;;;2.78;;
485;SDS011;229;48.734;9.340;2023-04-24T04:15:43;2.78;;;2.50;;
485;SDS011;229;48.734;9.340;2023-04-24T04:18:10;2.30;;;2.10;;
485;SDS011;229;48.734;9.340;2023-04-24T04:20:37;3.17;;;2.55;;
485;SDS011;229;48.734;9.340;2023-04-24T04:23:04;2.42;;;2.22;;
485;SDS011;229;48.734;9.340;2023-04-24T04:25:32;2.47;;;2.30;;
485;SDS011;229;48.734;9.340;2023-04-24T04:27:59;4.15;;;2.10;;
485;SDS011;229;48.734;9.340;2023-04-24T04:30:27;2.65;;;2.10;;
485;SDS011;229;48.734;9.340;2023-04-24T04:32:58;2.30;;;2.10;;
485;SDS011;229;48.734;9.340;2023-04-24T04:35:26;2.67;;;2.45;;
485;SDS011;229;48.734;9.340;2023-04-24T04:37:53;7.95;;;2.67;;
485;SDS011;229;48.734;9.340;2023-04-24T04:40:21;2.72;;;2.20;;
485;SDS011;229;48.734;9.340;2023-04-24T04:42:48;2.50;;;2.35;;
485;SDS011;229;48.734;9.340;2023-04-24T04:45:18;5.40;;;2.67;;
485;SDS011;229;48.734;9.340;2023-04-24T04:47:45;11.23;;;3.05;;
485;SDS011;229;48.734;9.340;2023-04-24T04:50:14;3.20;;;2.50;;
485;SDS011;229;48.734;9.340;2023-04-24T04:52:43;4.70;;;2.72;;
485;SDS011;229;48.734;9.340;2023-04-24T04:55:10;2.90;;;2.33;;
485;SDS011;229;48.734;9.340;2023-04-24T04:57:38;3.00;;;2.40;;
485;SDS011;229;48.734;9.340;2023-04-24T05:00:06;3.78;;;2.78;;
485;SDS011;229;48.734;9.340;2023-04-24T05:02:35;4.90;;;2.33;;
485;SDS011;229;48.734;9.340;2023-04-24T05:05:03;2.83;;;2.53;;
485;SDS011;229;48.734;9.340;2023-04-24T05:07:34;2.85;;;2.70;;
485;SDS011;229;48.734;9.340;2023-04-24T05:10:04;3.35;;;2.53;;
485;SDS011;229;48.734;9.340;2023-04-24T05:12:31;2.85;;;2.65;;
485;SDS011;229;48.734;9.340;2023-04-24T05:14:59;3.03;;;2.60;;
485;SDS011;229;48.734;9.340;2023-04-24T05:17:26;3.78;;;2.90;;
485;SDS011;229;48.734;9.340;2023-04-24T05:19:53;2.85;;;2.60;;
485;SDS011;229;48.734;9.340;2023-04-24T05:22:22;14.57;;;3.20;;
485;SDS011;229;48.734;9.340;2023-04-24T05:24:52;3.00;;;2.80;;
485;SDS011;229;48.734;9.340;2023-04-24T05:27:19;3.00;;;2.80;;
485;SDS011;229;48.734;9.340;2023-04-24T05:29:47;4.75;;;3.30;;
485;SDS011;229;48.734;9.340;2023-04-24T05:32:14;3.28;;;3.10;;
485;SDS011;229;48.734;9.340;2023-04-24T05:34:41;4.13;;;3.35;;
485;SDS011;229;48.734;9.340;2023-04-24T05:37:08;3.70;;;2.75;;
485;SDS011;229;48.734;9.340;2023-04-24T05:39:35;3.53;;;3.00;;
485;SDS011;229;48.734;9.340;2023-04-24T05:42:04;3.20;;;2.95;;
485;SDS011;229;48.734;9.340;2023-04-24T05:44:32;3.80;;;3.40;;
485;SDS011;229;48.734;9.340;2023-04-24T05:46:59;3.33;;;3.13;;
485;SDS011;229;48.734;9.340;2023-04-24T05:49:26;6.88;;;3.20;;
485;SDS011;229;48.734;9.340;2023-04-24T05:51:54;4.15;;;3.80;;
485;SDS011;229;48.734;9.340;2023-04-24T05:54:21;5.28;;;3.78;;
485;SDS011;229;48.734;9.340;2023-04-24T05:56:48;3.40;;;3.20;;
485;SDS011;229;48.734;9.340;2023-04-24T05:59:17;4.85;;;3.55;;
485;SDS011;229;48.734;9.340;2023-04-24T06:01:44;4.50;;;3.55;;
485;SDS011;229;48.734;9.340;2023-04-24T06:04:12;4.03;;;3.50;;
485;SDS011;229;48.734;9.340;2023-04-24T06:06:39;6.30;;;3.25;;
485;SDS011;229;48.734;9.340;2023-04-24T06:09:06;4.43;;;3.28;;
485;SDS011;229;48.734;9.340;2023-04-24T06:11:34;4.43;;;3.40;;
485;SDS011;229;48.734;9.340;2023-04-24T06:14:01;4.20;;;3.50;;
485;SDS011;229;48.734;9.340;2023-04-24T06:16:29;6.47;;;3.92;;
485;SDS011;229;48.734;9.340;2023-04-24T06:18:57;6.20;;;3.63;;
485;SDS011;229;48.734;9.340;2023-04-24T06:21:24;6.55;;;3.20;;
485;SDS011;229;48.734;9.340;2023-04-24T06:23:52;4.20;;;3.33;;
485;SDS011;229;48.734;9.340;2023-04-24T06:26:21;3.72;;;3.55;;
485;SDS011;229;48.734;9.340;2023-04-24T06:28:50;3.50;;;3.30;;
485;SDS011;229;48.734;9.340;2023-04-24T06:31:18;3.85;;;3.58;;
485;SDS011;229;48.734;9.340;2023-04-24T06:33:47;3.67;;;3.42;;
485;SDS011;229;48.734;9.340;2023-04-24T06:36:14;4.00;;;3.60;;
485;SDS011;229;48.734;9.340;2023-04-24T06:38:42;4.30;;;4.03;;
485;SDS011;229;48.734;9.340;2023-04-24T06:41:09;7.90;;;4.03;;
485;SDS011;229;48.734;9.340;2023-04-24T06:43:36;4.60;;;3.78;;
485;SDS011;229;48.734;9.340;2023-04-24T06:46:03;4.55;;;4.00;;
485;SDS011;229;48.734;9.340;2023-04-24T06:48:31;5.35;;;4.50;;
485;SDS011;229;48.734;9.340;2023-04-24T06:50:59;5.18;;;4.88;;
485;SDS011;229;48.734;9.340;2023-04-24T06:53:26;5.50;;;5.20;;
485;SDS011;229;48.734;9.340;2023-04-24T06:55:54;6.57;;;4.80;;
485;SDS011;229;48.734;9.340;2023-04-24T06:58:21;4.63;;;4.33;;
485;SDS011;229;48.734;9.340;2023-04-24T07:00:48;4.87;;;4.57;;
485;SDS011;229;48.734;9.340;2023-04-24T07:03:15;5.00;;;4.70;;
485;SDS011;229;48.734;9.340;2023-04-24T07:05:42;4.93;;;4.63;;
485;SDS011;229;48.734;9.340;2023-04-24T07:08:12;5.97;;;5.67;;
485;SDS011;229;48.734;9.340;2023-04-24T07:10:42;4.83;;;4.53;;
485;SDS011;229;48.734;9.340;2023-04-24T07:13:09;5.77;;;5.10;;
485;SDS011;229;48.734;9.340;2023-04-24T07:15:37;5.00;;;4.70;;
485;SDS011;229;48.734;9.340;2023-04-24T07:18:06;4.80;;;4.50;;
485;SDS011;229;48.734;9.340;2023-04-24T07:20:33;4.43;;;4.13;;
485;SDS011;229;48.734;9.340;2023-04-24T07:23:00;5.00;;;4.53;;
485;SDS011;229;48.734;9.340;2023-04-24T07:25:29;5.40;;;4.70;;
485;SDS011;229;48.734;9.340;2023-04-24T07:27:56;5.00;;;4.70;;
485;SDS011;229;48.734;9.340;2023-04-24T07:30:24;6.90;;;6.40;;
485;SDS011;229;48.734;9.340;2023-04-24T07:32:51;5.53;;;5.23;;
485;SDS011;229;48.734;9.340;2023-04-24T07:35:18;5.30;;;5.00;;
485;SDS011;229;48.734;9.340;2023-04-24T07:37:45;5.30;;;5.00;;
485;SDS011;229;48.734;9.340;2023-04-24T07:40:12;5.10;;;4.80;;
485;SDS011;229;48.734;9.340;2023-04-24T07:42:41;5.07;;;4.70;;
485;SDS011;229;48.734;9.340;2023-04-24T07:45:08;4.40;;;4.10;;
485;SDS011;229;48.734;9.340;2023-04-24T07:47:36;7.03;;;4.40;;
485;SDS011;229;48.734;9.340;2023-04-24T07:50:05;5.07;;;4.78;;
485;SDS011;229;48.734;9.340;2023-04-24T07:52:32;5.75;;;5.13;;
485;SDS011;229;48.734;9.340;2023-04-24T07:54:59;5.10;;;4.80;;
485;SDS011;229;48.734;9.340;2023-04-24T07:57:27;5.43;;;5.13;;
485;SDS011;229;48.734;9.340;2023-04-24T07:59:56;4.97;;;4.65;;
485;SDS011;229;48.734;9.340;2023-04-24T08:02:23;4.50;;;4.20;;
485;SDS011;229;48.734;9.340;2023-04-24T08:04:52;6.07;;;4.55;;
485;SDS011;229;48.734;9.340;2023-04-24T08:07:19;4.53;;;4.25;;
485;SDS011;229;48.734;9.340;2023-04-24T08:09:47;5.03;;;4.73;;
485;SDS011;229;48.734;9.340;2023-04-24T08:12:14;4.03;;;3.83;;
485;SDS011;229;48.734;9.340;2023-04-24T08:14:41;4.80;;;4.50;;
485;SDS011;229;48.734;9.340;2023-04-24T08:17:10;4.53;;;4.23;;
485;SDS011;229;48.734;9.340;2023-04-24T08:19:37;4.43;;;3.97;;
485;SDS011;229;48.734;9.340;2023-04-24T08:22:04;4.83;;;4.47;;
485;SDS011;229;48.734;9.340;2023-04-24T08:24:31;4.67;;;4.27;;
485;SDS011;229;48.734;9.340;2023-04-24T08:26:58;6.33;;;4.50;;
485;SDS011;229;48.734;9.340;2023-04-24T08:29:26;4.70;;;4.40;;
485;SDS011;229;48.734;9.340;2023-04-24T08:31:53;4.60;;;4.30;;
485;SDS011;229;48.734;9.340;2023-04-24T08:34:22;4.60;;;4.30;;
485;SDS011;229;48.734;9.340;2023-04-24T08:36:49;4.32;;;4.05;;
485;SDS011;229;48.734;9.340;2023-04-24T08:39:16;4.68;;;4.38;;
485;SDS011;229;48.734;9.340;2023-04-24T08:41:44;3.95;;;3.75;;
485;SDS011;229;48.734;9.340;2023-04-24T08:44:12;8.93;;;3.92;;
485;SDS011;229;48.734;9.340;2023-04-24T08:46:40;4.35;;;4.05;;
485;SDS011;229;48.734;9.340;2023-04-24T08:49:08;4.35;;;4.05;;
485;SDS011;229;48.734;9.340;2023-04-24T08:51:37;4.70;;;4.40;;
485;SDS011;229;48.734;9.340;2023-04-24T08:54:04;4.15;;;3.92;;
485;SDS011;229;48.734;9.340;2023-04-24T08:56:33;4.50;;;4.20;;
485;SDS011;229;48.734;9.340;2023-04-24T08:59:02;4.65;;;4.20;;
485;SDS011;229;48.734;9.340;2023-04-24T09:01:30;4.40;;;4.10;;
485;SDS011;229;48.734;9.340;2023-04-24T09:03:59;4.90;;;4.60;;
485;SDS011;229;48.734;9.340;2023-04-24T09:06:27;4.82;;;4.53;;
485;SDS011;229;48.734;9.340;2023-04-24T09:08:56;9.82;;;4.82;;
485;SDS011;229;48.734;9.340;2023-04-24T09:11:24;4.00;;;3.80;;
485;SDS011;229;48.734;9.340;2023-04-24T09:13:52;4.75;;;4.45;;
485;SDS011;229;48.734;9.340;2023-04-24T09:16:19;3.40;;;3.20;;
485;SDS011;229;48.734;9.340;2023-04-24T09:18:48;4.07;;;3.88;;
485;SDS011;229;48.734;9.340;2023-04-24T09:21:15;3.88;;;3.67;;
485;SDS011;229;48.734;9.340;2023-04-24T09:23:42;3.67;;;3.47;;
485;SDS011;229;48.734;9.340;2023-04-24T09:26:11;5.53;;;3.78;;
485;SDS011;229;48.734;9.340;2023-04-24T09:28:39;4.20;;;3.95;;
485;SDS011;229;48.734;9.340;2023-04-24T09:31:07;4.72;;;4.43;;
485;SDS011;229;48.734;9.340;2023-04-24T09:33:35;5.10;;;4.65;;
485;SDS011;229;48.734;9.340;2023-04-24T09:36:02;4.75;;;4.30;;
485;SDS011;229;48.734;9.340;2023-04-24T09:38:31;4.40;;;4.13;;
485;SDS011;229;48.734;9.340;2023-04-24T09:40:59;4.78;;;4.40;;
485;SDS011;229;48.734;9.340;2023-04-24T09:43:29;4.90;;;4.60;;
485;SDS011;229;48.734;9.340;2023-04-24T09:45:56;4.47;;;4.18;;
485;SDS011;229;48.734;9.340;2023-04-24T09:48:31;5.40;;;4.70;;
485;SDS011;229;48.734;9.340;2023-04-24T09:50:58;5.88;;;4.57;;
485;SDS011;229;48.734;9.340;2023-04-24T09:53:26;4.35;;;4.05;;
485;SDS011;229;48.734;9.340;2023-04-24T09:55:53;4.78;;;4.47;;
485;SDS011;229;48.734;9.340;2023-04-24T09:58:24;3.80;;;3.60;;
485;SDS011;229;48.734;9.340;2023-04-24T10:00:54;8.10;;;4.00;;
485;SDS011;229;48.734;9.340;2023-04-24T10:03:23;4.82;;;4.10;;
485;SDS011;229;48.734;9.340;2023-04-24T10:05:52;9.43;;;3.70;;
485;SDS011;229;48.734;9.340;2023-04-24T10:08:20;4.27;;;4.00;;
485;SDS011;229;48.734;9.340;2023-04-24T10:10:47;4.30;;;4.00;;
485;SDS011;229;48.734;9.340;2023-04-24T10:13:14;4.50;;;4.20;;
485;SDS011;229;48.734;9.340;2023-04-24T10:15:41;4.30;;;4.00;;
485;SDS011;229;48.734;9.340;2023-04-24T10:18:10;3.60;;;3.40;;
485;SDS011;229;48.734;9.340;2023-04-24T10:20:39;3.93;;;3.80;;
485;SDS011;229;48.734;9.340;2023-04-24T10:23:06;5.33;;;3.80;;
485;SDS011;229;48.734;9.340;2023-04-24T10:25:34;4.00;;;3.70;;
485;SDS011;229;48.734;9.340;2023-04-24T10:28:02;3.70;;;3.50;;
485;SDS011;229;48.734;9.340;2023-04-24T10:30:29;6.57;;;4.10;;
485;SDS011;229;48.734;9.340;2023-04-24T10:32:59;4.30;;;4.00;;
485;SDS011;229;48.734;9.340;2023-04-24T10:35:29;3.73;;;3.53;;
485;SDS011;229;48.734;9.340;2023-04-24T10:37:57;3.87;;;3.53;;
485;SDS011;229;48.734;9.340;2023-04-24T10:40:26;4.37;;;4.07;;
485;SDS011;229;48.734;9.340;2023-04-24T10:42:53;4.17;;;3.93;;
485;SDS011;229;48.734;9.340;2023-04-24T10:45:21;6.93;;;4.40;;
485;SDS011;229;48.734;9.340;2023-04-24T10:47:52;4.03;;;3.83;;
485;SDS011;229;48.734;9.340;2023-04-24T10:50:20;3.70;;;3.50;;
485;SDS011;229;48.734;9.340;2023-04-24T10:52:48;3.70;;;3.50;;
485;SDS011;229;48.734;9.340;2023-04-24T10:55:29;6.73;;;3.30;;
485;SDS011;229;48.734;9.340;2023-04-24T10:58:05;3.20;;;2.90;;
485;SDS011;229;48.734;9.340;2023-04-24T11:00:33;3.80;;;3.60;;
485;SDS011;229;48.734;9.340;2023-04-24T11:03:04;3.83;;;3.63;;
485;SDS011;229;48.734;9.340;2023-04-24T11:05:51;4.43;;;3.50;;
485;SDS011;229;48.734;9.340;2023-04-24T11:08:23;4.07;;;3.87;;
485;SDS011;229;48.734;9.340;2023-04-24T11:10:54;4.10;;;3.90;;
485;SDS011;229;48.734;9.340;2023-04-24T11:13:22;4.83;;;4.53;;
485;SDS011;229;48.734;9.340;2023-04-24T11:18:36;5.38;;;4.03;;
485;SDS011;229;48.734;9.340;2023-04-24T11:21:09;4.32;;;4.03;;
485;SDS011;229;48.734;9.340;2023-04-24T11:23:38;4.40;;;4.10;;
485;SDS011;229;48.734;9.340;2023-04-24T11:26:12;4.65;;;4.35;;
485;SDS011;229;48.734;9.340;2023-04-24T11:28:46;4.30;;;4.00;;
485;SDS011;229;48.734;9.340;2023-04-24T11:34:05;4.80;;;4.50;;
485;SDS011;229;48.734;9.340;2023-04-24T11:36:32;4.47;;;4.20;;
485;SDS011;229;48.734;9.340;2023-04-24T11:39:01;3.88;;;3.70;;
485;SDS011;229;48.734;9.340;2023-04-24T11:41:28;4.68;;;4.30;;
485;SDS011;229;48.734;9.340;2023-04-24T11:43:55;5.15;;;4.85;;
485;SDS011;229;48.734;9.340;2023-04-24T11:46:23;4.80;;;4.50;;
485;SDS011;229;48.734;9.340;2023-04-24T11:48:50;4.53;;;4.25;;
485;SDS011;229;48.734;9.340;2023-04-24T11:51:17;4.55;;;4.25;;
485;SDS011;229;48.734;9.340;2023-04-24T11:53:44;5.32;;;3.63;;
485;SDS011;229;48.734;9.340;2023-04-24T11:56:13;3.88;;;3.67;;
485;SDS011;229;48.734;9.340;2023-04-24T11:58:44;4.40;;;4.10;;
485;SDS011;229;48.734;9.340;2023-04-24T12:01:12;4.80;;;4.50;;
485;SDS011;229;48.734;9.340;2023-04-24T12:03:40;7.03;;;4.45;;
485;SDS011;229;48.734;9.340;2023-04-24T12:06:09;4.10;;;3.90;;
485;SDS011;229;48.734;9.340;2023-04-24T12:08:37;34.85;;;9.90;;
485;SDS011;229;48.734;9.340;2023-04-24T12:11:05;11.10;;;5.90;;
485;SDS011;229;48.734;9.340;2023-04-24T12:13:34;8.80;;;5.65;;
485;SDS011;229;48.734;9.340;2023-04-24T12:16:03;4.68;;;4.00;;
485;SDS011;229;48.734;9.340;2023-04-24T12:18:30;11.45;;;5.68;;
485;SDS011;229;48.734;9.340;2023-04-24T12:23:42;23.00;;;6.75;;
485;SDS011;229;48.734;9.340;2023-04-24T12:26:09;5.28;;;4.30;;
485;SDS011;229;48.734;9.340;2023-04-24T12:28:38;3.97;;;3.78;;
485;SDS011;229;48.734;9.340;2023-04-24T12:31:06;4.10;;;3.90;;
485;SDS011;229;48.734;9.340;2023-04-24T12:33:34;4.60;;;4.30;;
485;SDS011;229;48.734;9.340;2023-04-24T12:36:01;4.10;;;3.60;;
485;SDS011;229;48.734;9.340;2023-04-24T12:38:30;3.58;;;3.38;;
485;SDS011;229;48.734;9.340;2023-04-24T12:41:05;4.60;;;4.30;;
485;SDS011;229;48.734;9.340;2023-04-24T12:43:32;4.35;;;4.05;;
485;SDS011;229;48.734;9.340;2023-04-24T12:46:01;3.80;;;3.60;;
485;SDS011;229;48.734;9.340;2023-04-24T12:48:29;5.72;;;4.30;;
485;SDS011;229;48.734;9.340;2023-04-24T12:50:56;4.57;;;4.28;;
485;SDS011;229;48.734;9.340;2023-04-24T12:53:26;3.80;;;3.60;;
485;SDS011;229;48.734;9.340;2023-04-24T12:55:54;3.83;;;3.63;;
485;SDS011;229;48.734;9.340;2023-04-24T12:58:21;6.93;;;4.32;;
485;SDS011;229;48.734;9.340;2023-04-24T13:00:48;4.40;;;4.10;;
485;SDS011;229;48.734;9.340;2023-04-24T13:03:17;4.80;;;3.92;;
485;SDS011;229;48.734;9.340;2023-04-24T13:05:44;4.38;;;4.00;;
485;SDS011;229;48.734;9.340;2023-04-24T13:08:11;5.32;;;4.68;;
485;SDS011;229;48.734;9.340;2023-04-24T13:10:39;4.43;;;4.13;;
485;SDS011;229;48.734;9.340;2023-04-24T13:13:06;4.93;;;4.63;;
485;SDS011;229;48.734;9.340;2023-04-24T13:15:34;5.22;;;4.93;;
485;SDS011;229;48.734;9.340;2023-04-24T13:18:01;4.30;;;4.00;;
485;SDS011;229;48.734;9.340;2023-04-24T13:20:30;4.80;;;4.50;;
485;SDS011;229;48.734;9.340;2023-04-24T13:22:57;4.55;;;4.25;;
485;SDS011;229;48.734;9.340;2023-04-24T13:25:25;4.50;;;4.20;;
485;SDS011;229;48.734;9.340;2023-04-24T13:27:52;4.70;;;4.40;;
485;SDS011;229;48.734;9.340;2023-04-24T13:30:20;5.40;;;4.22;;
485;SDS011;229;48.734;9.340;2023-04-24T13:32:47;7.70;;;4.85;;
485;SDS011;229;48.734;9.340;2023-04-24T13:35:14;5.57;;;4.68;;
485;SDS011;229;48.734;9.340;2023-04-24T13:37:43;4.80;;;4.50;;
485;SDS011;229;48.734;9.340;2023-04-24T13:40:10;3.90;;;3.70;;
485;SDS011;229;48.734;9.340;2023-04-24T13:42:37;4.75;;;4.45;;
485;SDS011;229;48.734;9.340;2023-04-24T13:45:05;5.45;;;5.15;;
485;SDS011;229;48.734;9.340;2023-04-24T13:47:32;3.83;;;3.63;;
485;SDS011;229;48.734;9.340;2023-04-24T13:50:00;4.45;;;4.15;;
485;SDS011;229;48.734;9.340;2023-04-24T13:52:27;4.50;;;4.20;;
485;SDS011;229;48.734;9.340;2023-04-24T13:54:56;5.13;;;4.82;;
485;SDS011;229;48.734;9.340;2023-04-24T13:57:23;5.57;;;4.70;;
485;SDS011;229;48.734;9.340;2023-04-24T13:59:50;4.68;;;4.38;;
485;SDS011;229;48.734;9.340;2023-04-24T14:02:18;5.85;;;4.80;;
485;SDS011;229;48.734;9.340;2023-04-24T14:04:45;5.38;;;5.10;;
485;SDS011;229;48.734;9.340;2023-04-24T14:07:13;5.00;;;4.70;;
485;SDS011;229;48.734;9.340;2023-04-24T14:09:40;4.25;;;3.97;;
485;SDS011;229;48.734;9.340;2023-04-24T14:12:09;5.40;;;5.10;;
485;SDS011;229;48.734;9.340;2023-04-24T14:14:36;6.28;;;4.50;;
485;SDS011;229;48.734;9.340;2023-04-24T14:17:03;5.00;;;4.70;;
485;SDS011;229;48.734;9.340;2023-04-24T14:19:30;4.50;;;4.20;;
485;SDS011;229;48.734;9.340;2023-04-24T14:21:58;4.70;;;4.40;;
485;SDS011;229;48.734;9.340;2023-04-24T14:24:25;5.20;;;4.90;;
485;SDS011;229;48.734;9.340;2023-04-24T14:26:52;6.00;;;4.13;;
485;SDS011;229;48.734;9.340;2023-04-24T14:29:21;4.60;;;4.30;;
485;SDS011;229;48.734;9.340;2023-04-24T14:31:48;4.18;;;3.92;;
485;SDS011;229;48.734;9.340;2023-04-24T14:34:15;3.47;;;3.28;;
485;SDS011;229;48.734;9.340;2023-04-24T14:36:43;4.00;;;3.80;;
485;SDS011;229;48.734;9.340;2023-04-24T14:39:10;3.72;;;3.63;;
485;SDS011;229;48.734;9.340;2023-04-24T14:41:37;4.50;;;4.20;;
485;SDS011;229;48.734;9.340;2023-04-24T14:44:05;3.58;;;3.38;;
485;SDS011;229;48.734;9.340;2023-04-24T14:46:34;3.92;;;3.72;;
485;SDS011;229;48.734;9.340;2023-04-24T14:49:01;4.22;;;3.83;;
485;SDS011;229;48.734;9.340;2023-04-24T14:51:28;6.07;;;5.75;;
485;SDS011;229;48.734;9.340;2023-04-24T14:53:56;4.30;;;4.00;;
485;SDS011;229;48.734;9.340;2023-04-24T14:56:23;4.32;;;4.05;;
485;SDS011;229;48.734;9.340;2023-04-24T14:58:50;4.60;;;4.30;;
485;SDS011;229;48.734;9.340;2023-04-24T15:01:17;4.55;;;4.15;;
485;SDS011;229;48.734;9.340;2023-04-24T15:03:46;5.15;;;4.88;;
485;SDS011;229;48.734;9.340;2023-04-24T15:06:13;4.68;;;4.38;;
485;SDS011;229;48.734;9.340;2023-04-24T15:08:40;3.92;;;3.72;;
485;SDS011;229;48.734;9.340;2023-04-24T15:11:07;5.20;;;4.90;;
485;SDS011;229;48.734;9.340;2023-04-24T15:13:35;4.68;;;4.38;;
485;SDS011;229;48.734;9.340;2023-04-24T15:16:02;5.90;;;3.90;;
485;SDS011;229;48.734;9.340;2023-04-24T15:18:29;4.07;;;3.63;;
485;SDS011;229;48.734;9.340;2023-04-24T15:20:58;4.88;;;4.57;;
485;SDS011;229;48.734;9.340;2023-04-24T15:23:25;5.38;;;5.15;;
485;SDS011;229;48.734;9.340;2023-04-24T15:25:52;5.00;;;4.00;;
485;SDS011;229;48.734;9.340;2023-04-24T15:28:19;4.13;;;3.90;;
485;SDS011;229;48.734;9.340;2023-04-24T15:30:46;3.80;;;3.60;;
485;SDS011;229;48.734;9.340;2023-04-24T15:33:14;4.70;;;4.22;;
485;SDS011;229;48.734;9.340;2023-04-24T15:35:41;4.53;;;4.20;;
485;SDS011;229;48.734;9.340;2023-04-24T15:38:09;3.90;;;3.70;;
485;SDS011;229;48.734;9.340;2023-04-24T15:40:37;4.03;;;3.83;;
485;SDS011;229;48.734;9.340;2023-04-24T15:43:04;4.50;;;4.20;;
485;SDS011;229;48.734;9.340;2023-04-24T15:45:31;4.78;;;4.20;;
485;SDS011;229;48.734;9.340;2023-04-24T15:47:59;7.15;;;4.22;;
485;SDS011;229;48.734;9.340;2023-04-24T15:50:26;6.97;;;3.80;;
485;SDS011;229;48.734;9.340;2023-04-24T15:52:53;4.28;;;4.00;;
485;SDS011;229;48.734;9.340;2023-04-24T15:55:22;4.80;;;4.25;;
485;SDS011;229;48.734;9.340;2023-04-24T15:57:49;3.90;;;3.70;;